Terminal Aerodrome Forecast
Issued by NWS Grand Forks, ND

Home | Current Version | Previous Version | Text Only | Print | Product List | Glossary Off
Versions: 1 2 3 4 5 6 7 8 9 10 11 12 13 14 15 16 17 18

195
FTUS43 KFGF 041301 AAA
TAFFAR
TAF AMD
KFAR 041301Z 0413/0512 34009KT P6SM BKN035
      TEMPO 0413/0414 SCT014
     FM041900 32007KT P6SM BKN060
     FM050000 17004KT P6SM BKN120=

USA.gov is the U.S. government's official web portal to all federal, state and local government web resources and services.